Time;durP1;ratioP1;P1;durP2;ratioP2;P2;SDS_P1;SDS_P2;PMS_P1;PMS_P2;Temp;Humidity;BMP_temperature;BMP_pressure;BME280_temperature;BME280_humidity;BME280_pressure;Samples;Min_cycle;Max_cycle;Signal;HPM_P1;HPM_P2
2022/12/09 00:00:05;;;;;;;51.13;25.87;;;;;;;;;;5114564;28;20818;-73
2022/12/09 00:02:32;;;;;;;45.70;21.50;;;;;;;;;;5114593;28;20456;-73
2022/12/09 00:04:59;;;;;;;56.57;26.83;;;;;;;;;;5113736;28;20456;-73
2022/12/09 00:07:27;;;;;;;62.03;26.07;;;;;;;;;;5114240;28;20492;-73
2022/12/09 00:09:55;;;;;;;44.30;26.17;;;;;;;;;;5113990;28;20465;-73
2022/12/09 00:12:22;;;;;;;44.70;22.30;;;;;;;;;;5114305;28;20450;-73
2022/12/09 00:14:49;;;;;;;44.37;21.33;;;;;;;;;;5112375;28;20821;-73
2022/12/09 00:17:16;;;;;;;43.70;22.17;;;;;;;;;;5113886;28;20484;-73
2022/12/09 00:19:43;;;;;;;47.83;22.40;;;;;;;;;;5114023;28;20453;-73
2022/12/09 00:22:11;;;;;;;35.70;19.53;;;;;;;;;;5113943;28;20985;-73
2022/12/09 00:24:38;;;;;;;31.23;18.47;;;;;;;;;;5113265;28;20446;-73
2022/12/09 00:27:07;;;;;;;32.30;19.10;;;;;;;;;;5113758;28;20524;-73
2022/12/09 00:29:34;;;;;;;32.10;17.20;;;;;;;;;;5113048;28;20450;-73
2022/12/09 00:32:02;;;;;;;35.33;18.03;;;;;;;;;;5113604;28;20453;-73
2022/12/09 00:34:29;;;;;;;38.97;17.57;;;;;;;;;;5113234;28;20545;-73
2022/12/09 00:36:56;;;;;;;33.10;18.27;;;;;;;;;;5113472;28;20462;-73
2022/12/09 00:39:23;;;;;;;32.70;16.93;;;;;;;;;;5113798;28;20543;-73
2022/12/09 00:41:51;;;;;;;27.60;16.47;;;;;;;;;;5113607;28;20457;-73
2022/12/09 00:44:19;;;;;;;26.43;14.73;;;;;;;;;;5113098;28;20449;-73
2022/12/09 00:46:46;;;;;;;21.83;14.53;;;;;;;;;;5113383;28;20489;-73
2022/12/09 00:49:14;;;;;;;25.27;16.00;;;;;;;;;;5113642;28;20449;-73
2022/12/09 00:51:41;;;;;;;30.43;15.90;;;;;;;;;;5113468;28;20454;-73
2022/12/09 00:54:08;;;;;;;29.37;16.00;;;;;;;;;;5112791;28;20446;-73
2022/12/09 00:56:35;;;;;;;26.80;15.23;;;;;;;;;;5113362;28;20444;-73
2022/12/09 00:59:02;;;;;;;33.97;17.13;;;;;;;;;;5113470;28;20449;-73
2022/12/09 01:01:31;;;;;;;27.23;16.17;;;;;;;;;;5113456;28;20450;-73
2022/12/09 01:03:58;;;;;;;31.73;17.30;;;;;;;;;;5112443;28;20452;-73
2022/12/09 01:06:26;;;;;;;25.83;14.20;;;;;;;;;;5113090;28;20481;-73
2022/12/09 01:08:53;;;;;;;26.07;15.10;;;;;;;;;;5113160;28;20456;-73
2022/12/09 01:11:22;;;;;;;33.07;16.27;;;;;;;;;;5113143;27;20450;-73
2022/12/09 01:13:49;;;;;;;22.07;12.47;;;;;;;;;;5112601;28;20813;-72
2022/12/09 01:16:17;;;;;;;25.40;12.20;;;;;;;;;;5112263;28;20961;-73
2022/12/09 01:18:46;;;;;;;28.10;15.67;;;;;;;;;;5112957;28;20480;-73
2022/12/09 01:21:13;;;;;;;27.03;14.23;;;;;;;;;;5113217;28;20450;-73
2022/12/09 01:23:41;;;;;;;31.30;14.10;;;;;;;;;;5112293;28;20450;-73
2022/12/09 01:26:08;;;;;;;22.07;14.33;;;;;;;;;;5113121;28;20813;-73
2022/12/09 01:28:36;;;;;;;26.07;14.67;;;;;;;;;;5112890;28;20990;-73
2022/12/09 01:31:07;;;;;;;25.20;13.93;;;;;;;;;;5113040;28;20453;-73
2022/12/09 01:33:34;;;;;;;33.57;15.97;;;;;;;;;;5112407;28;20453;-73
2022/12/09 01:36:04;;;;;;;26.43;14.23;;;;;;;;;;5112836;28;20450;-73
2022/12/09 01:38:31;;;;;;;28.07;13.80;;;;;;;;;;5112778;28;20492;-73
2022/12/09 01:40:59;;;;;;;27.17;15.60;;;;;;;;;;5113576;28;20524;-73
2022/12/09 01:43:26;;;;;;;22.13;14.37;;;;;;;;;;5117027;28;20442;-73
2022/12/09 01:45:53;;;;;;;22.50;13.70;;;;;;;;;;5117104;28;20445;-73
2022/12/09 01:48:21;;;;;;;25.40;14.00;;;;;;;;;;5116879;28;20542;-73
2022/12/09 01:50:51;;;;;;;24.90;14.63;;;;;;;;;;5116804;27;20453;-73
2022/12/09 01:53:20;;;;;;;31.53;16.50;;;;;;;;;;5116983;28;20455;-73
2022/12/09 01:55:48;;;;;;;30.53;16.30;;;;;;;;;;5116371;28;20449;-73
2022/12/09 01:58:16;;;;;;;25.30;15.10;;;;;;;;;;5116759;28;20458;-73
2022/12/09 02:00:44;;;;;;;27.10;13.70;;;;;;;;;;5116692;28;20454;-73
2022/12/09 02:03:11;;;;;;;26.20;13.13;;;;;;;;;;5116899;28;20962;-73
2022/12/09 02:05:39;;;;;;;34.70;16.23;;;;;;;;;;5116041;28;20445;-73
2022/12/09 02:08:07;;;;;;;25.80;15.57;;;;;;;;;;5116727;27;20489;-73
2022/12/09 02:10:37;;;;;;;21.17;11.63;;;;;;;;;;5116431;28;20553;-73
2022/12/09 02:13:08;;;;;;;31.97;14.77;;;;;;;;;;5116567;28;20456;-74
2022/12/09 02:15:37;;;;;;;32.50;15.63;;;;;;;;;;5114457;28;20460;-73
2022/12/09 02:18:08;;;;;;;31.30;15.40;;;;;;;;;;5116182;28;20487;-73
2022/12/09 02:20:37;;;;;;;29.10;15.57;;;;;;;;;;5116434;28;20455;-73
2022/12/09 02:23:06;;;;;;;31.77;16.50;;;;;;;;;;5116331;28;20957;-73
2022/12/09 02:25:38;;;;;;;39.07;15.60;;;;;;;;;;5115619;28;20969;-73
2022/12/09 02:28:20;;;;;;;35.37;14.70;;;;;;;;;;5116251;28;20994;-73
2022/12/09 02:30:51;;;;;;;36.50;18.10;;;;;;;;;;5103144;28;20468;-73
2022/12/09 02:33:34;;;;;;;32.97;15.57;;;;;;;;;;5116311;28;20469;-73
2022/12/09 02:36:05;;;;;;;29.37;17.13;;;;;;;;;;5116249;28;20804;-73
2022/12/09 02:38:33;;;;;;;30.03;14.23;;;;;;;;;;5116037;28;20461;-73
2022/12/09 02:41:02;;;;;;;32.87;16.30;;;;;;;;;;5115872;27;20451;-73
2022/12/09 02:43:31;;;;;;;27.63;14.47;;;;;;;;;;5115474;28;20456;-72
2022/12/09 02:45:59;;;;;;;28.53;14.47;;;;;;;;;;5115822;28;20450;-73
2022/12/09 02:48:28;;;;;;;35.67;17.27;;;;;;;;;;5115776;28;20856;-73
2022/12/09 02:50:57;;;;;;;30.30;16.60;;;;;;;;;;5115668;28;20456;-73
2022/12/09 02:53:26;;;;;;;28.77;14.50;;;;;;;;;;5114629;28;20450;-72
2022/12/09 02:55:55;;;;;;;33.40;16.03;;;;;;;;;;5115570;28;20460;-73
2022/12/09 02:58:22;;;;;;;29.97;14.40;;;;;;;;;;5115655;28;20807;-72
2022/12/09 03:00:50;;;;;;;34.00;15.67;;;;;;;;;;5115523;28;20449;-73
2022/12/09 03:03:18;;;;;;;30.00;15.63;;;;;;;;;;5115529;28;20453;-73
2022/12/09 03:05:50;;;;;;;32.30;14.50;;;;;;;;;;5114925;27;20946;-73
2022/12/09 03:08:22;;;;;;;36.17;17.60;;;;;;;;;;5115714;28;21033;-73
2022/12/09 03:10:56;;;;;;;36.27;16.60;;;;;;;;;;5115436;28;20445;-74
2022/12/09 03:13:27;;;;;;;28.23;15.20;;;;;;;;;;5115252;28;20457;-73
2022/12/09 03:15:56;;;;;;;35.80;16.57;;;;;;;;;;5113684;28;20456;-73
2022/12/09 03:18:25;;;;;;;37.37;18.40;;;;;;;;;;5115280;28;20470;-73
2022/12/09 03:20:52;;;;;;;27.40;15.13;;;;;;;;;;5115394;28;21036;-73
2022/12/09 03:23:23;;;;;;;31.80;16.20;;;;;;;;;;5115225;27;20453;-73
2022/12/09 03:25:52;;;;;;;32.87;17.37;;;;;;;;;;5114742;28;20456;-74
2022/12/09 03:28:22;;;;;;;31.87;17.43;;;;;;;;;;5115171;28;20947;-73
2022/12/09 03:30:49;;;;;;;22.60;10.10;;;;;;;;;;5112879;28;20468;-73
2022/12/09 03:33:18;;;;;;;38.10;17.47;;;;;;;;;;5115146;28;20441;-73
2022/12/09 03:35:47;;;;;;;30.23;17.37;;;;;;;;;;5114315;28;20461;-73
2022/12/09 03:38:16;;;;;;;37.60;15.80;;;;;;;;;;5114739;27;20918;-73
2022/12/09 03:40:44;;;;;;;29.23;17.70;;;;;;;;;;5114902;28;20450;-73
2022/12/09 03:43:14;;;;;;;39.83;19.30;;;;;;;;;;5114858;28;20450;-73
2022/12/09 03:45:43;;;;;;;24.50;14.53;;;;;;;;;;5114018;28;20472;-73
2022/12/09 03:48:11;;;;;;;30.10;16.30;;;;;;;;;;5114576;28;20489;-73
2022/12/09 03:50:42;;;;;;;34.97;18.10;;;;;;;;;;5114655;28;20460;-73
2022/12/09 03:53:11;;;;;;;35.43;18.97;;;;;;;;;;5114720;28;21011;-73
2022/12/09 03:55:43;;;;;;;29.30;17.07;;;;;;;;;;5113747;28;20454;-73
2022/12/09 03:58:12;;;;;;;31.90;19.43;;;;;;;;;;5114514;28;20466;-73
2022/12/09 04:00:40;;;;;;;37.50;19.03;;;;;;;;;;5114347;28;20455;-73
2022/12/09 04:03:08;;;;;;;32.93;17.07;;;;;;;;;;5114674;28;20850;-73
2022/12/09 04:05:35;;;;;;;35.80;17.10;;;;;;;;;;5113642;28;20450;-73
2022/12/09 04:08:03;;;;;;;35.80;19.30;;;;;;;;;;5114078;28;20486;-73
2022/12/09 04:10:30;;;;;;;30.50;13.30;;;;;;;;;;5114311;28;20450;-73
2022/12/09 04:12:57;;;;;;;35.90;20.17;;;;;;;;;;5114264;28;20799;-73
2022/12/09 04:15:24;;;;;;;39.57;20.47;;;;;;;;;;5111947;28;20445;-72
2022/12/09 04:17:51;;;;;;;36.40;19.60;;;;;;;;;;5113853;28;20481;-73
2022/12/09 04:20:20;;;;;;;42.00;21.37;;;;;;;;;;5114286;28;20453;-73
2022/12/09 04:22:47;;;;;;;44.03;19.80;;;;;;;;;;5113939;28;20811;-73
2022/12/09 04:25:14;;;;;;;45.00;22.30;;;;;;;;;;5113452;28;20892;-73
2022/12/09 04:27:41;;;;;;;46.13;19.73;;;;;;;;;;5113822;28;20477;-73
2022/12/09 04:30:09;;;;;;;44.67;21.17;;;;;;;;;;5111583;28;20464;-73
2022/12/09 04:32:36;;;;;;;48.10;20.47;;;;;;;;;;5113822;28;20449;-73
2022/12/09 04:35:03;;;;;;;52.67;19.73;;;;;;;;;;5113253;28;20450;-73
2022/12/09 04:37:32;;;;;;;41.33;19.73;;;;;;;;;;5113807;28;20473;-73
2022/12/09 04:39:59;;;;;;;50.77;23.70;;;;;;;;;;5113882;28;20450;-73
2022/12/09 04:42:26;;;;;;;37.87;18.80;;;;;;;;;;5113626;28;20449;-73
2022/12/09 04:44:53;;;;;;;43.23;20.70;;;;;;;;;;5112990;28;20519;-73
2022/12/09 04:47:20;;;;;;;52.90;25.80;;;;;;;;;;5113719;28;20818;-73
2022/12/09 04:49:47;;;;;;;31.27;18.10;;;;;;;;;;5113488;28;20942;-73
2022/12/09 04:52:14;;;;;;;45.43;22.83;;;;;;;;;;5113586;28;20449;-73
2022/12/09 04:54:43;;;;;;;39.60;21.80;;;;;;;;;;5112914;28;20468;-74
2022/12/09 04:57:10;;;;;;;39.97;22.47;;;;;;;;;;5113381;28;20992;-73
2022/12/09 04:59:37;;;;;;;52.30;23.90;;;;;;;;;;5113593;28;20954;-73
2022/12/09 05:02:05;;;;;;;49.60;23.63;;;;;;;;;;5113289;28;20460;-73
2022/12/09 05:04:32;;;;;;;49.23;24.17;;;;;;;;;;5112771;28;20471;-73
2022/12/09 05:06:59;;;;;;;36.57;20.07;;;;;;;;;;5113179;28;20479;-73
2022/12/09 05:09:26;;;;;;;39.17;20.33;;;;;;;;;;5113264;28;21014;-73
2022/12/09 05:11:57;;;;;;;45.00;23.60;;;;;;;;;;5113052;28;20456;-73
2022/12/09 05:14:24;;;;;;;46.37;23.97;;;;;;;;;;5111835;28;20477;-73
2022/12/09 05:16:51;;;;;;;46.77;25.17;;;;;;;;;;5112649;28;20500;-73
2022/12/09 05:19:18;;;;;;;35.70;18.80;;;;;;;;;;5113336;28;20445;-73
2022/12/09 05:21:45;;;;;;;43.63;23.37;;;;;;;;;;5113064;28;20453;-73
2022/12/09 05:24:13;;;;;;;39.90;21.77;;;;;;;;;;5112353;28;20475;-73
2022/12/09 05:26:40;;;;;;;44.53;23.47;;;;;;;;;;5112971;28;20556;-73
2022/12/09 05:29:08;;;;;;;48.50;22.43;;;;;;;;;;5113049;28;20990;-73
2022/12/09 05:31:35;;;;;;;46.63;23.07;;;;;;;;;;5110834;28;20449;-74
2022/12/09 05:34:02;;;;;;;42.57;21.90;;;;;;;;;;5112396;28;20460;-73
2022/12/09 05:36:30;;;;;;;46.90;22.83;;;;;;;;;;5112877;28;20503;-74
2022/12/09 05:38:57;;;;;;;37.33;21.57;;;;;;;;;;5112674;28;20540;-73
2022/12/09 05:41:24;;;;;;;51.27;22.77;;;;;;;;;;5112984;28;20449;-74
2022/12/09 05:43:51;;;;;;;48.83;22.27;;;;;;;;;;5112233;28;20450;-74
2022/12/09 05:46:20;;;;;;;42.27;20.00;;;;;;;;;;5112809;28;20858;-74
2022/12/09 05:48:47;;;;;;;74.20;29.90;;;;;;;;;;5112714;28;20854;-74
2022/12/09 05:51:16;;;;;;;46.47;24.67;;;;;;;;;;5112826;28;20453;-74
2022/12/09 05:53:43;;;;;;;49.53;25.00;;;;;;;;;;5112242;28;20456;-74
2022/12/09 05:56:10;;;;;;;48.17;24.87;;;;;;;;;;5112903;28;20472;-74
2022/12/09 05:58:37;;;;;;;37.40;19.40;;;;;;;;;;5112574;28;20554;-73
2022/12/09 06:01:05;;;;;;;47.73;23.90;;;;;;;;;;5112800;28;20453;-74
2022/12/09 06:03:34;;;;;;;62.93;26.97;;;;;;;;;;5112379;28;20450;-74
2022/12/09 06:06:05;;;;;;;53.77;25.23;;;;;;;;;;5112862;28;20451;-73
2022/12/09 06:08:32;;;;;;;43.20;19.30;;;;;;;;;;5112575;28;20489;-74
2022/12/09 06:10:59;;;;;;;57.73;24.73;;;;;;;;;;5112798;28;20492;-73
2022/12/09 06:13:26;;;;;;;42.23;21.07;;;;;;;;;;5112358;28;20450;-73
2022/12/09 06:15:54;;;;;;;45.70;22.57;;;;;;;;;;5111600;28;20482;-73
2022/12/09 06:18:21;;;;;;;51.20;22.47;;;;;;;;;;5112454;28;20468;-73
2022/12/09 06:20:49;;;;;;;81.30;35.13;;;;;;;;;;5112534;28;20471;-74
2022/12/09 06:23:16;;;;;;;41.60;22.03;;;;;;;;;;5112714;28;20457;-74
2022/12/09 06:25:44;;;;;;;46.77;21.10;;;;;;;;;;5112096;28;20536;-74
2022/12/09 06:28:11;;;;;;;88.67;43.77;;;;;;;;;;5113219;28;20493;-74
2022/12/09 06:30:39;;;;;;;42.33;22.97;;;;;;;;;;5114017;28;20452;-74
2022/12/09 06:33:06;;;;;;;61.20;26.30;;;;;;;;;;5116401;28;20475;-74
2022/12/09 06:35:33;;;;;;;48.17;24.37;;;;;;;;;;5115611;28;20449;-74
2022/12/09 06:38:02;;;;;;;45.80;21.27;;;;;;;;;;5116094;28;20461;-73
2022/12/09 06:40:29;;;;;;;35.00;19.53;;;;;;;;;;5116273;28;20472;-73
2022/12/09 06:42:56;;;;;;;37.67;16.17;;;;;;;;;;5116065;28;20449;-73
2022/12/09 06:45:23;;;;;;;38.07;20.13;;;;;;;;;;5115621;28;20451;-74
2022/12/09 06:47:50;;;;;;;44.43;20.57;;;;;;;;;;5116005;28;20966;-73
2022/12/09 06:50:17;;;;;;;44.37;20.50;;;;;;;;;;5116037;28;20457;-74
2022/12/09 06:52:45;;;;;;;48.77;22.07;;;;;;;;;;5115747;28;20453;-73
2022/12/09 06:55:13;;;;;;;52.87;23.17;;;;;;;;;;5115162;28;20453;-74
2022/12/09 06:57:40;;;;;;;39.17;19.10;;;;;;;;;;5115640;28;20540;-73
2022/12/09 07:00:08;;;;;;;42.07;22.00;;;;;;;;;;5115649;28;20467;-73
2022/12/09 07:02:35;;;;;;;46.07;20.27;;;;;;;;;;5115669;27;20450;-73
2022/12/09 07:05:02;;;;;;;48.10;22.57;;;;;;;;;;5107052;28;20492;-73
2022/12/09 07:07:29;;;;;;;50.27;24.17;;;;;;;;;;5094919;28;20471;-74
2022/12/09 07:09:57;;;;;;;47.60;23.40;;;;;;;;;;5095003;28;20486;-73
2022/12/09 07:12:25;;;;;;;53.80;23.50;;;;;;;;;;5095230;28;20447;-73
2022/12/09 07:14:52;;;;;;;50.60;23.60;;;;;;;;;;5093476;28;20455;-71
2022/12/09 07:17:20;;;;;;;37.67;20.20;;;;;;;;;;5096188;28;20478;-73
2022/12/09 07:19:47;;;;;;;41.07;21.10;;;;;;;;;;5094353;28;20542;-73
2022/12/09 07:22:15;;;;;;;53.60;23.87;;;;;;;;;;5094733;28;20477;-73
2022/12/09 07:24:42;;;;;;;51.70;23.73;;;;;;;;;;5094192;28;20446;-73
2022/12/09 07:27:10;;;;;;;56.30;21.93;;;;;;;;;;5094601;28;20930;-73
2022/12/09 07:29:38;;;;;;;55.50;25.53;;;;;;;;;;5094599;28;20493;-73
2022/12/09 07:32:06;;;;;;;41.80;21.97;;;;;;;;;;5094541;28;20947;-73
2022/12/09 07:34:33;;;;;;;43.13;21.20;;;;;;;;;;5094202;28;20447;-73
2022/12/09 07:37:00;;;;;;;42.47;21.10;;;;;;;;;;5094545;28;20987;-73
2022/12/09 07:39:27;;;;;;;45.40;22.40;;;;;;;;;;5093846;28;20447;-72
2022/12/09 07:41:56;;;;;;;46.60;22.50;;;;;;;;;;5094003;28;20463;-72
2022/12/09 07:44:23;;;;;;;41.87;23.07;;;;;;;;;;5094004;28;20495;-73
2022/12/09 07:46:52;;;;;;;42.03;19.37;;;;;;;;;;5094120;28;20872;-73
2022/12/09 07:49:19;;;;;;;55.43;23.97;;;;;;;;;;5094457;28;20493;-73
2022/12/09 07:51:46;;;;;;;36.80;18.70;;;;;;;;;;5094029;28;20451;-73
2022/12/09 07:54:14;;;;;;;31.53;15.97;;;;;;;;;;5093526;28;20462;-73
2022/12/09 07:56:41;;;;;;;33.73;17.67;;;;;;;;;;5094167;28;20459;-73
2022/12/09 07:59:09;;;;;;;35.80;17.60;;;;;;;;;;5094116;28;20447;-73
2022/12/09 08:01:36;;;;;;;26.13;11.57;;;;;;;;;;5094046;28;20461;-72
2022/12/09 08:04:06;;;;;;;31.33;16.70;;;;;;;;;;5093474;28;20495;-73
2022/12/09 08:06:34;;;;;;;32.97;18.47;;;;;;;;;;5094166;28;20814;-73
2022/12/09 08:09:02;;;;;;;27.73;15.43;;;;;;;;;;5093612;28;20498;-72
2022/12/09 08:11:30;;;;;;;37.37;18.00;;;;;;;;;;5093571;28;20446;-73
2022/12/09 08:13:58;;;;;;;22.97;12.43;;;;;;;;;;5093323;28;20449;-73
2022/12/09 08:16:25;;;;;;;32.27;16.17;;;;;;;;;;5092679;28;20466;-72
2022/12/09 08:18:53;;;;;;;31.40;19.97;;;;;;;;;;5093923;28;20457;-73
2022/12/09 08:21:23;;;;;;;32.57;10.90;;;;;;;;;;5093507;28;20666;-72
2022/12/09 08:23:51;;;;;;;28.47;14.60;;;;;;;;;;5093069;28;20459;-72
2022/12/09 08:26:20;;;;;;;23.93;15.60;;;;;;;;;;5093660;28;20451;-73
2022/12/09 08:28:47;;;;;;;37.03;16.73;;;;;;;;;;5093285;28;20490;-72
2022/12/09 08:31:15;;;;;;;34.00;18.17;;;;;;;;;;5091289;28;20450;-73
2022/12/09 08:33:43;;;;;;;27.87;16.17;;;;;;;;;;5092771;28;20455;-72
2022/12/09 08:36:11;;;;;;;29.97;15.07;;;;;;;;;;5093139;28;20460;-72
2022/12/09 08:38:39;;;;;;;32.90;16.80;;;;;;;;;;5093106;28;20834;-72
2022/12/09 08:41:10;;;;;;;36.63;18.87;;;;;;;;;;5093116;28;20451;-72
2022/12/09 08:43:38;;;;;;;42.43;19.53;;;;;;;;;;5092622;28;20455;-72
2022/12/09 08:46:05;;;;;;;32.17;18.40;;;;;;;;;;5092969;28;20455;-73
2022/12/09 08:48:33;;;;;;;31.83;17.73;;;;;;;;;;5092871;28;20502;-73
2022/12/09 08:51:00;;;;;;;396.53;173.53;;;;;;;;;;5092156;28;20874;-72
2022/12/09 08:53:27;;;;;;;57.63;27.30;;;;;;;;;;5092747;28;20450;-73
2022/12/09 08:55:55;;;;;;;44.27;23.53;;;;;;;;;;5092528;28;20451;-73
2022/12/09 08:58:22;;;;;;;37.47;20.97;;;;;;;;;;5092959;28;20831;-73
2022/12/09 09:00:50;;;;;;;40.67;20.73;;;;;;;;;;5092807;28;20455;-73
2022/12/09 09:03:17;;;;;;;50.97;24.00;;;;;;;;;;5092601;28;20451;-73
2022/12/09 09:05:44;;;;;;;39.53;22.03;;;;;;;;;;5092178;28;20446;-73
2022/12/09 09:08:11;;;;;;;34.80;18.87;;;;;;;;;;5092669;28;20474;-73
2022/12/09 09:10:38;;;;;;;27.63;14.27;;;;;;;;;;5092659;28;20494;-73
2022/12/09 09:13:07;;;;;;;31.57;15.97;;;;;;;;;;5092603;28;20484;-73
2022/12/09 09:15:34;;;;;;;37.67;17.67;;;;;;;;;;5091430;28;20476;-73
2022/12/09 09:18:01;;;;;;;27.03;13.70;;;;;;;;;;5092296;28;20569;-74
2022/12/09 09:20:28;;;;;;;41.50;16.30;;;;;;;;;;5092766;28;20461;-74
2022/12/09 09:22:55;;;;;;;33.73;17.50;;;;;;;;;;5092188;28;20453;-73
2022/12/09 09:25:22;;;;;;;31.10;15.23;;;;;;;;;;5092022;28;20455;-73
2022/12/09 09:27:50;;;;;;;25.53;15.47;;;;;;;;;;5092206;28;20504;-73
2022/12/09 09:30:18;;;;;;;32.77;14.50;;;;;;;;;;5091201;28;20848;-74
2022/12/09 09:32:45;;;;;;;26.80;13.30;;;;;;;;;;5092223;28;20455;-73
2022/12/09 09:35:12;;;;;;;26.80;15.00;;;;;;;;;;5092131;28;20461;-73
2022/12/09 09:37:40;;;;;;;29.33;15.63;;;;;;;;;;5092191;28;20847;-73
2022/12/09 09:40:07;;;;;;;27.17;16.03;;;;;;;;;;5092236;28;20446;-74
2022/12/09 09:42:36;;;;;;;31.57;17.83;;;;;;;;;;5091704;28;20450;-73
2022/12/09 09:45:05;;;;;;;23.50;14.50;;;;;;;;;;5089890;28;20478;-73
2022/12/09 09:47:37;;;;;;;29.80;16.07;;;;;;;;;;5090720;28;20471;-73
2022/12/09 09:50:07;;;;;;;36.53;17.40;;;;;;;;;;5090678;28;20500;-73
2022/12/09 09:52:35;;;;;;;24.00;14.93;;;;;;;;;;5090828;28;20497;-73
2022/12/09 09:55:07;;;;;;;36.20;17.20;;;;;;;;;;5090776;28;20463;-73
2022/12/09 09:57:36;;;;;;;41.40;22.57;;;;;;;;;;5091124;28;20843;-73
2022/12/09 10:00:07;;;;;;;29.70;16.07;;;;;;;;;;5090650;28;20962;-73
2022/12/09 10:02:54;;;;;;;31.17;15.50;;;;;;;;;;5092786;28;20451;-73
2022/12/09 10:05:25;;;;;;;30.50;16.40;;;;;;;;;;5094466;28;20458;-74
2022/12/09 10:07:55;;;;;;;35.77;17.27;;;;;;;;;;5078007;28;20491;-73
2022/12/09 10:10:28;;;;;;;31.33;16.30;;;;;;;;;;5074420;28;20582;-73
2022/12/09 10:13:01;;;;;;;27.57;15.30;;;;;;;;;;5074892;28;20826;-74
2022/12/09 10:15:29;;;;;;;31.40;15.87;;;;;;;;;;5074167;28;20956;-74
2022/12/09 10:18:05;;;;;;;29.17;16.13;;;;;;;;;;5074071;28;20483;-74
2022/12/09 10:20:33;;;;;;;27.47;15.17;;;;;;;;;;5073965;28;20454;-73
2022/12/09 10:23:01;;;;;;;33.20;19.77;;;;;;;;;;5074413;28;20884;-74
2022/12/09 10:25:29;;;;;;;25.20;14.63;;;;;;;;;;5073954;28;20454;-74
2022/12/09 10:28:00;;;;;;;26.80;15.83;;;;;;;;;;5073698;28;20479;-74
2022/12/09 10:30:27;;;;;;;29.27;16.00;;;;;;;;;;5072585;28;20487;-74
2022/12/09 10:32:55;;;;;;;20.57;11.40;;;;;;;;;;5073697;28;20463;-72
2022/12/09 10:35:25;;;;;;;25.33;13.23;;;;;;;;;;5073478;28;20469;-73
2022/12/09 10:37:53;;;;;;;25.83;15.80;;;;;;;;;;5073943;28;20482;-72
2022/12/09 10:40:22;;;;;;;25.10;14.43;;;;;;;;;;5074297;28;20477;-72
2022/12/09 10:45:35;;;;;;;34.23;17.67;;;;;;;;;;5074398;28;20473;-72
2022/12/09 10:48:02;;;;;;;23.27;14.00;;;;;;;;;;5074316;28;20477;-73
2022/12/09 10:50:33;;;;;;;25.93;14.47;;;;;;;;;;5074493;28;20497;-72
2022/12/09 10:53:05;;;;;;;28.80;13.50;;;;;;;;;;5075230;28;20451;-72
2022/12/09 10:55:35;;;;;;;40.40;23.47;;;;;;;;;;5075472;28;20446;-72
2022/12/09 10:58:11;;;;;;;27.50;16.80;;;;;;;;;;5075269;28;20515;-72
2022/12/09 11:00:38;;;;;;;25.93;15.00;;;;;;;;;;5075325;28;20444;-73
2022/12/09 11:03:21;;;;;;;26.10;16.37;;;;;;;;;;5075334;28;20455;-72
2022/12/09 11:05:55;;;;;;;32.13;17.80;;;;;;;;;;5075426;28;20805;-72
2022/12/09 11:08:23;;;;;;;32.33;16.47;;;;;;;;;;5075210;28;20475;-72
2022/12/09 11:10:50;;;;;;;27.50;17.30;;;;;;;;;;5085487;28;20841;-72
2022/12/09 11:13:19;;;;;;;25.13;14.63;;;;;;;;;;5095167;28;20458;-72
2022/12/09 11:15:50;;;;;;;40.57;22.97;;;;;;;;;;5094878;28;20944;-72
2022/12/09 11:18:19;;;;;;;35.90;20.17;;;;;;;;;;5095254;28;20477;-72
2022/12/09 11:20:56;;;;;;;26.70;15.97;;;;;;;;;;5095168;28;20451;-72
2022/12/09 11:23:23;;;;;;;24.13;14.50;;;;;;;;;;5095321;28;20466;-72
2022/12/09 11:25:54;;;;;;;29.40;15.63;;;;;;;;;;5094967;28;20541;-72
2022/12/09 11:28:25;;;;;;;27.40;15.77;;;;;;;;;;5094919;28;20561;-73
2022/12/09 11:30:54;;;;;;;28.20;16.47;;;;;;;;;;5093737;28;20494;-72
2022/12/09 11:33:24;;;;;;;24.10;14.50;;;;;;;;;;5095257;28;20530;-72
2022/12/09 11:35:54;;;;;;;43.23;21.77;;;;;;;;;;5095138;28;20993;-72
2022/12/09 11:38:33;;;;;;;27.83;15.90;;;;;;;;;;5095024;28;20507;-72
2022/12/09 11:41:03;;;;;;;24.20;13.40;;;;;;;;;;5095076;28;20447;-72
2022/12/09 11:43:35;;;;;;;27.77;15.63;;;;;;;;;;5094827;28;20452;-72
2022/12/09 11:46:09;;;;;;;29.70;15.53;;;;;;;;;;5094983;28;20459;-72
2022/12/09 11:48:36;;;;;;;27.70;15.33;;;;;;;;;;5094718;28;20505;-72
2022/12/09 11:51:03;;;;;;;33.03;14.67;;;;;;;;;;5094409;28;20490;-72
2022/12/09 11:53:32;;;;;;;34.30;13.67;;;;;;;;;;5094727;28;20961;-72
2022/12/09 11:56:02;;;;;;;23.10;12.90;;;;;;;;;;5094582;28;20453;-72
2022/12/09 11:58:31;;;;;;;38.10;14.33;;;;;;;;;;5094508;28;20552;-72
2022/12/09 12:01:01;;;;;;;26.77;14.73;;;;;;;;;;5094425;28;20479;-73
2022/12/09 12:03:32;;;;;;;26.23;15.50;;;;;;;;;;5094729;28;20459;-72
2022/12/09 12:06:01;;;;;;;30.53;17.27;;;;;;;;;;5094508;28;20450;-72
2022/12/09 12:08:31;;;;;;;28.90;15.90;;;;;;;;;;5094626;28;20832;-72
2022/12/09 12:11:01;;;;;;;24.17;14.17;;;;;;;;;;5094691;28;20493;-72
2022/12/09 12:13:29;;;;;;;27.50;14.33;;;;;;;;;;5094208;28;20459;-72
2022/12/09 12:16:01;;;;;;;37.07;18.17;;;;;;;;;;5094075;28;20451;-72
2022/12/09 12:18:30;;;;;;;28.83;17.77;;;;;;;;;;5094549;28;20564;-72
2022/12/09 12:21:07;;;;;;;27.20;17.10;;;;;;;;;;5094740;28;20496;-71
2022/12/09 12:23:44;;;;;;;28.50;16.33;;;;;;;;;;5094603;28;20450;-72
2022/12/09 12:26:16;;;;;;;24.90;13.80;;;;;;;;;;5093450;28;20431;-71
2022/12/09 12:28:54;;;;;;;33.40;17.77;;;;;;;;;;5094416;28;20964;-70
2022/12/09 12:31:29;;;;;;;35.20;15.57;;;;;;;;;;5094578;28;20971;-70
2022/12/09 12:34:02;;;;;;;36.47;18.90;;;;;;;;;;5093902;28;20461;-70
2022/12/09 12:36:34;;;;;;;42.87;27.23;;;;;;;;;;5094152;28;20439;-71
2022/12/09 12:39:05;;;;;;;39.47;25.53;;;;;;;;;;5094166;28;20797;-71
2022/12/09 12:41:37;;;;;;;27.27;16.10;;;;;;;;;;5094013;28;20446;-71
2022/12/09 12:47:02;;;;;;;23.27;13.30;;;;;;;;;;5093697;28;20446;-71
2022/12/09 12:49:35;;;;;;;29.17;17.77;;;;;;;;;;5093335;28;20455;-71
2022/12/09 12:52:08;;;;;;;34.07;17.93;;;;;;;;;;5093426;28;20819;-71
2022/12/09 12:54:40;;;;;;;34.57;19.40;;;;;;;;;;5092801;28;20461;-71
2022/12/09 12:57:12;;;;;;;37.67;22.83;;;;;;;;;;5093113;28;20471;-71
2022/12/09 12:59:43;;;;;;;36.83;17.50;;;;;;;;;;5093314;28;20465;-71
2022/12/09 13:02:16;;;;;;;32.27;18.20;;;;;;;;;;5093352;28;20454;-71
2022/12/09 13:04:47;;;;;;;36.13;20.00;;;;;;;;;;5092989;28;20535;-71
2022/12/09 13:07:18;;;;;;;33.97;17.53;;;;;;;;;;5093355;28;20473;-70
2022/12/09 13:09:48;;;;;;;32.67;18.73;;;;;;;;;;5093015;28;20459;-70
2022/12/09 13:12:52;;;;;;;34.23;19.23;;;;;;;;;;5093457;28;20943;-71
2022/12/09 13:15:06;;;;;;;101.50;72.60;;;;;;;;;;5092718;28;20474;-70
2022/12/09 13:17:33;;;;;;;38.93;20.17;;;;;;;;;;5093179;28;20483;-71
2022/12/09 13:20:01;;;;;;;43.73;23.87;;;;;;;;;;5093346;28;20439;-71
2022/12/09 13:22:30;;;;;;;37.30;19.07;;;;;;;;;;5093485;28;20534;-70
2022/12/09 13:25:01;;;;;;;40.80;20.10;;;;;;;;;;5093258;28;20822;-71
2022/12/09 13:27:34;;;;;;;38.37;21.00;;;;;;;;;;5092887;28;20477;-71
2022/12/09 13:30:03;;;;;;;36.83;17.63;;;;;;;;;;5093017;28;20487;-71
2022/12/09 13:32:39;;;;;;;44.83;21.83;;;;;;;;;;5093053;28;20512;-71
2022/12/09 13:35:07;;;;;;;43.70;21.87;;;;;;;;;;5092998;28;20450;-71
2022/12/09 13:37:54;;;;;;;33.93;18.87;;;;;;;;;;5092458;28;20474;-71
2022/12/09 13:40:37;;;;;;;38.17;20.40;;;;;;;;;;5093137;28;20543;-71
2022/12/09 13:43:06;;;;;;;37.37;17.57;;;;;;;;;;5092800;28;20450;-71
2022/12/09 13:45:35;;;;;;;31.80;17.23;;;;;;;;;;5092356;28;20461;-71
2022/12/09 13:48:04;;;;;;;38.63;19.10;;;;;;;;;;5093027;28;20473;-70
2022/12/09 13:50:35;;;;;;;34.57;18.07;;;;;;;;;;5092362;28;20483;-71
2022/12/09 13:53:03;;;;;;;36.80;19.70;;;;;;;;;;5092520;28;20457;-71
2022/12/09 13:55:39;;;;;;;37.10;18.90;;;;;;;;;;5092094;28;20462;-74
2022/12/09 13:58:22;;;;;;;39.50;15.70;;;;;;;;;;5092413;28;20470;-70
2022/12/09 14:00:59;;;;;;;39.43;19.83;;;;;;;;;;5090239;28;20463;-70
2022/12/09 14:03:30;;;;;;;51.03;22.90;;;;;;;;;;5092217;28;20450;-70
2022/12/09 14:05:59;;;;;;;44.97;26.83;;;;;;;;;;5092218;28;20446;-71
2022/12/09 14:08:29;;;;;;;46.20;24.77;;;;;;;;;;5092286;28;20470;-70
2022/12/09 14:10:58;;;;;;;48.23;26.23;;;;;;;;;;5092247;28;20486;-70
2022/12/09 14:13:27;;;;;;;47.20;25.20;;;;;;;;;;5092116;28;20549;-71
2022/12/09 14:16:18;;;;;;;43.27;24.10;;;;;;;;;;5091918;28;20442;-70
2022/12/09 14:18:45;;;;;;;54.60;29.10;;;;;;;;;;5092124;28;20477;-70
2022/12/09 14:21:23;;;;;;;42.77;23.07;;;;;;;;;;5092236;28;21009;-71
2022/12/09 14:24:10;;;;;;;43.93;21.93;;;;;;;;;;5091611;28;21050;-70
2022/12/09 14:26:39;;;;;;;42.27;21.77;;;;;;;;;;5092138;28;20549;-70
2022/12/09 14:29:06;;;;;;;33.73;16.97;;;;;;;;;;5092089;28;20451;-72
2022/12/09 14:31:48;;;;;;;40.07;19.03;;;;;;;;;;5090177;28;20847;-71